sensor_id;sensor_type;location;lat;lon;timestamp;pressure;altitude;pressure_sealevel;temperature
79488;BMP180;68949;53.176;18.088;2023-06-14T00:00:51;100913.20;;;
79488;BMP180;68949;53.176;18.088;2023-06-14T00:03:39;100917.20;;;
79488;BMP180;68949;53.176;18.088;2023-06-14T00:06:05;100914.20;;;
79488;BMP180;68949;53.176;18.088;2023-06-14T00:08:32;100911.40;;;
79488;BMP180;68949;53.176;18.088;2023-06-14T00:10:59;100911.60;;;
79488;BMP180;68949;53.176;18.088;2023-06-14T00:13:26;100907.40;;;
79488;BMP180;68949;53.176;18.088;2023-06-14T00:15:53;100904.40;;;
79488;BMP180;68949;53.176;18.088;2023-06-14T00:18:23;100902.20;;;
79488;BMP180;68949;53.176;18.088;2023-06-14T00:20:56;100897.40;;;
79488;BMP180;68949;53.176;18.088;2023-06-14T00:23:23;100894.20;;;
79488;BMP180;68949;53.176;18.088;2023-06-14T00:25:49;100892.80;;;
79488;BMP180;68949;53.176;18.088;2023-06-14T00:28:16;100898.40;;;
79488;BMP180;68949;53.176;18.088;2023-06-14T00:30:46;100892.80;;;
79488;BMP180;68949;53.176;18.088;2023-06-14T00:33:13;100898.00;;;
79488;BMP180;68949;53.176;18.088;2023-06-14T00:35:45;100901.80;;;
79488;BMP180;68949;53.176;18.088;2023-06-14T00:38:14;100904.80;;;
79488;BMP180;68949;53.176;18.088;2023-06-14T00:40:41;100900.60;;;
79488;BMP180;68949;53.176;18.088;2023-06-14T00:43:13;100895.60;;;
79488;BMP180;68949;53.176;18.088;2023-06-14T00:45:40;100897.20;;;
79488;BMP180;68949;53.176;18.088;2023-06-14T00:48:08;100899.20;;;
79488;BMP180;68949;53.176;18.088;2023-06-14T00:50:36;100902.20;;;
79488;BMP180;68949;53.176;18.088;2023-06-14T00:53:07;100898.00;;;
79488;BMP180;68949;53.176;18.088;2023-06-14T00:55:34;100897.80;;;
79488;BMP180;68949;53.176;18.088;2023-06-14T00:58:01;100891.20;;;
79488;BMP180;68949;53.176;18.088;2023-06-14T01:00:27;100885.20;;;
79488;BMP180;68949;53.176;18.088;2023-06-14T01:02:55;100879.20;;;
79488;BMP180;68949;53.176;18.088;2023-06-14T01:05:24;100875.40;;;
79488;BMP180;68949;53.176;18.088;2023-06-14T01:11:05;100870.00;;;
79488;BMP180;68949;53.176;18.088;2023-06-14T01:13:43;100874.00;;;
79488;BMP180;68949;53.176;18.088;2023-06-14T01:16:12;100872.80;;;
79488;BMP180;68949;53.176;18.088;2023-06-14T01:18:43;100870.80;;;
79488;BMP180;68949;53.176;18.088;2023-06-14T01:21:25;100865.80;;;
79488;BMP180;68949;53.176;18.088;2023-06-14T01:23:52;100858.40;;;
79488;BMP180;68949;53.176;18.088;2023-06-14T01:26:21;100854.60;;;
79488;BMP180;68949;53.176;18.088;2023-06-14T01:28:50;100857.80;;;
79488;BMP180;68949;53.176;18.088;2023-06-14T01:31:20;100855.20;;;
79488;BMP180;68949;53.176;18.088;2023-06-14T01:33:51;100859.60;;;
79488;BMP180;68949;53.176;18.088;2023-06-14T01:36:20;100860.80;;;
79488;BMP180;68949;53.176;18.088;2023-06-14T01:38:50;100860.60;;;
79488;BMP180;68949;53.176;18.088;2023-06-14T01:41:21;100859.80;;;
79488;BMP180;68949;53.176;18.088;2023-06-14T01:43:50;100853.00;;;
79488;BMP180;68949;53.176;18.088;2023-06-14T01:46:17;100853.60;;;
79488;BMP180;68949;53.176;18.088;2023-06-14T01:48:44;100854.40;;;
79488;BMP180;68949;53.176;18.088;2023-06-14T01:51:11;100848.60;;;
79488;BMP180;68949;53.176;18.088;2023-06-14T01:53:38;100848.60;;;
79488;BMP180;68949;53.176;18.088;2023-06-14T01:56:05;100842.00;;;
79488;BMP180;68949;53.176;18.088;2023-06-14T01:58:32;100844.40;;;
79488;BMP180;68949;53.176;18.088;2023-06-14T02:01:00;100844.60;;;
79488;BMP180;68949;53.176;18.088;2023-06-14T02:03:28;100838.20;;;
79488;BMP180;68949;53.176;18.088;2023-06-14T02:05:55;100838.40;;;
79488;BMP180;68949;53.176;18.088;2023-06-14T02:08:22;100834.40;;;
79488;BMP180;68949;53.176;18.088;2023-06-14T02:10:49;100831.40;;;
79488;BMP180;68949;53.176;18.088;2023-06-14T02:13:16;100832.80;;;
79488;BMP180;68949;53.176;18.088;2023-06-14T02:15:43;100832.40;;;
79488;BMP180;68949;53.176;18.088;2023-06-14T02:18:12;100839.40;;;
79488;BMP180;68949;53.176;18.088;2023-06-14T02:20:39;100837.00;;;
79488;BMP180;68949;53.176;18.088;2023-06-14T02:23:05;100840.00;;;
79488;BMP180;68949;53.176;18.088;2023-06-14T02:25:34;100844.00;;;
79488;BMP180;68949;53.176;18.088;2023-06-14T02:28:01;100845.40;;;
79488;BMP180;68949;53.176;18.088;2023-06-14T02:30:28;100839.00;;;
79488;BMP180;68949;53.176;18.088;2023-06-14T02:33:00;100836.80;;;
79488;BMP180;68949;53.176;18.088;2023-06-14T02:35:27;100833.00;;;
79488;BMP180;68949;53.176;18.088;2023-06-14T02:37:56;100835.60;;;
79488;BMP180;68949;53.176;18.088;2023-06-14T02:40:23;100841.60;;;
79488;BMP180;68949;53.176;18.088;2023-06-14T02:42:50;100835.80;;;
79488;BMP180;68949;53.176;18.088;2023-06-14T02:45:17;100832.00;;;
79488;BMP180;68949;53.176;18.088;2023-06-14T02:47:45;100825.60;;;
79488;BMP180;68949;53.176;18.088;2023-06-14T02:50:13;100827.60;;;
79488;BMP180;68949;53.176;18.088;2023-06-14T02:52:39;100830.00;;;
79488;BMP180;68949;53.176;18.088;2023-06-14T02:55:09;100827.60;;;
79488;BMP180;68949;53.176;18.088;2023-06-14T02:57:38;100826.80;;;
79488;BMP180;68949;53.176;18.088;2023-06-14T03:00:07;100830.00;;;
79488;BMP180;68949;53.176;18.088;2023-06-14T03:02:37;100828.40;;;
79488;BMP180;68949;53.176;18.088;2023-06-14T03:05:04;100826.80;;;
79488;BMP180;68949;53.176;18.088;2023-06-14T03:07:33;100822.60;;;
79488;BMP180;68949;53.176;18.088;2023-06-14T03:10:02;100826.40;;;
79488;BMP180;68949;53.176;18.088;2023-06-14T03:12:29;100825.40;;;
79488;BMP180;68949;53.176;18.088;2023-06-14T03:14:57;100823.40;;;
79488;BMP180;68949;53.176;18.088;2023-06-14T03:17:29;100824.60;;;
79488;BMP180;68949;53.176;18.088;2023-06-14T03:20:01;100822.00;;;
79488;BMP180;68949;53.176;18.088;2023-06-14T03:22:28;100826.00;;;
79488;BMP180;68949;53.176;18.088;2023-06-14T03:24:55;100824.80;;;
79488;BMP180;68949;53.176;18.088;2023-06-14T03:27:23;100827.00;;;
79488;BMP180;68949;53.176;18.088;2023-06-14T03:29:50;100823.40;;;
79488;BMP180;68949;53.176;18.088;2023-06-14T03:32:17;100823.40;;;
79488;BMP180;68949;53.176;18.088;2023-06-14T03:34:45;100824.00;;;
79488;BMP180;68949;53.176;18.088;2023-06-14T03:37:16;100830.80;;;
79488;BMP180;68949;53.176;18.088;2023-06-14T03:39:43;100836.40;;;
79488;BMP180;68949;53.176;18.088;2023-06-14T03:42:22;100841.00;;;
79488;BMP180;68949;53.176;18.088;2023-06-14T03:44:49;100831.00;;;
79488;BMP180;68949;53.176;18.088;2023-06-14T03:47:16;100830.20;;;
79488;BMP180;68949;53.176;18.088;2023-06-14T03:49:43;100828.80;;;
79488;BMP180;68949;53.176;18.088;2023-06-14T03:52:10;100828.40;;;
79488;BMP180;68949;53.176;18.088;2023-06-14T03:54:38;100826.40;;;
79488;BMP180;68949;53.176;18.088;2023-06-14T03:57:06;100826.60;;;
79488;BMP180;68949;53.176;18.088;2023-06-14T03:59:33;100826.80;;;
79488;BMP180;68949;53.176;18.088;2023-06-14T04:02:00;100824.40;;;
79488;BMP180;68949;53.176;18.088;2023-06-14T04:04:27;100827.80;;;
79488;BMP180;68949;53.176;18.088;2023-06-14T04:07:02;100824.60;;;
79488;BMP180;68949;53.176;18.088;2023-06-14T04:09:31;100827.40;;;
79488;BMP180;68949;53.176;18.088;2023-06-14T04:11:58;100835.60;;;
79488;BMP180;68949;53.176;18.088;2023-06-14T04:14:25;100834.60;;;
79488;BMP180;68949;53.176;18.088;2023-06-14T04:16:52;100835.00;;;
79488;BMP180;68949;53.176;18.088;2023-06-14T04:19:27;100840.80;;;
79488;BMP180;68949;53.176;18.088;2023-06-14T04:21:54;100846.00;;;
79488;BMP180;68949;53.176;18.088;2023-06-14T04:24:28;100848.40;;;
79488;BMP180;68949;53.176;18.088;2023-06-14T04:26:59;100849.80;;;
79488;BMP180;68949;53.176;18.088;2023-06-14T04:29:28;100846.60;;;
79488;BMP180;68949;53.176;18.088;2023-06-14T04:32:03;100847.80;;;
79488;BMP180;68949;53.176;18.088;2023-06-14T04:34:33;100843.40;;;
79488;BMP180;68949;53.176;18.088;2023-06-14T04:37:00;100847.80;;;
79488;BMP180;68949;53.176;18.088;2023-06-14T04:39:36;100850.40;;;
79488;BMP180;68949;53.176;18.088;2023-06-14T04:42:04;100850.60;;;
79488;BMP180;68949;53.176;18.088;2023-06-14T04:44:32;100849.80;;;
79488;BMP180;68949;53.176;18.088;2023-06-14T04:47:02;100847.00;;;
79488;BMP180;68949;53.176;18.088;2023-06-14T04:49:28;100838.40;;;
79488;BMP180;68949;53.176;18.088;2023-06-14T04:51:58;100835.40;;;
79488;BMP180;68949;53.176;18.088;2023-06-14T04:54:28;100833.60;;;
79488;BMP180;68949;53.176;18.088;2023-06-14T04:57:01;100822.60;;;
79488;BMP180;68949;53.176;18.088;2023-06-14T04:59:28;100813.60;;;
79488;BMP180;68949;53.176;18.088;2023-06-14T05:02:00;100813.40;;;
79488;BMP180;68949;53.176;18.088;2023-06-14T05:04:27;100824.00;;;
79488;BMP180;68949;53.176;18.088;2023-06-14T05:06:54;100818.40;;;
79488;BMP180;68949;53.176;18.088;2023-06-14T05:09:22;100817.00;;;
79488;BMP180;68949;53.176;18.088;2023-06-14T05:11:50;100824.40;;;
79488;BMP180;68949;53.176;18.088;2023-06-14T05:14:17;100816.00;;;
79488;BMP180;68949;53.176;18.088;2023-06-14T05:16:45;100814.40;;;
79488;BMP180;68949;53.176;18.088;2023-06-14T05:19:12;100822.20;;;
79488;BMP180;68949;53.176;18.088;2023-06-14T05:21:39;100849.00;;;
79488;BMP180;68949;53.176;18.088;2023-06-14T05:24:06;100857.60;;;
79488;BMP180;68949;53.176;18.088;2023-06-14T05:26:33;100863.00;;;
79488;BMP180;68949;53.176;18.088;2023-06-14T05:29:00;100863.00;;;
79488;BMP180;68949;53.176;18.088;2023-06-14T05:31:28;100856.80;;;
79488;BMP180;68949;53.176;18.088;2023-06-14T05:33:54;100844.00;;;
79488;BMP180;68949;53.176;18.088;2023-06-14T05:36:21;100830.20;;;
79488;BMP180;68949;53.176;18.088;2023-06-14T05:38:49;100819.80;;;
79488;BMP180;68949;53.176;18.088;2023-06-14T05:41:17;100806.80;;;
79488;BMP180;68949;53.176;18.088;2023-06-14T05:43:44;100806.60;;;
79488;BMP180;68949;53.176;18.088;2023-06-14T05:46:11;100820.00;;;
79488;BMP180;68949;53.176;18.088;2023-06-14T05:48:37;100804.00;;;
79488;BMP180;68949;53.176;18.088;2023-06-14T05:51:04;100803.00;;;
79488;BMP180;68949;53.176;18.088;2023-06-14T05:53:35;100796.00;;;
79488;BMP180;68949;53.176;18.088;2023-06-14T05:56:01;100790.40;;;
79488;BMP180;68949;53.176;18.088;2023-06-14T05:58:28;100768.60;;;
79488;BMP180;68949;53.176;18.088;2023-06-14T06:00:55;100765.60;;;
79488;BMP180;68949;53.176;18.088;2023-06-14T06:03:22;100754.80;;;
79488;BMP180;68949;53.176;18.088;2023-06-14T06:05:49;100753.60;;;
79488;BMP180;68949;53.176;18.088;2023-06-14T06:08:16;100760.40;;;
79488;BMP180;68949;53.176;18.088;2023-06-14T06:10:59;100777.20;;;
79488;BMP180;68949;53.176;18.088;2023-06-14T06:13:26;100782.80;;;
79488;BMP180;68949;53.176;18.088;2023-06-14T06:15:53;100784.60;;;
79488;BMP180;68949;53.176;18.088;2023-06-14T06:18:20;100792.80;;;
79488;BMP180;68949;53.176;18.088;2023-06-14T06:20:46;100781.20;;;
79488;BMP180;68949;53.176;18.088;2023-06-14T06:23:13;100778.20;;;
79488;BMP180;68949;53.176;18.088;2023-06-14T06:25:40;100772.40;;;
79488;BMP180;68949;53.176;18.088;2023-06-14T06:28:07;100777.40;;;
79488;BMP180;68949;53.176;18.088;2023-06-14T06:30:34;100779.60;;;
79488;BMP180;68949;53.176;18.088;2023-06-14T06:33:04;100779.40;;;
79488;BMP180;68949;53.176;18.088;2023-06-14T06:35:30;100782.00;;;
79488;BMP180;68949;53.176;18.088;2023-06-14T06:38:00;100765.80;;;
79488;BMP180;68949;53.176;18.088;2023-06-14T06:40:28;100784.00;;;
79488;BMP180;68949;53.176;18.088;2023-06-14T06:42:55;100777.00;;;
79488;BMP180;68949;53.176;18.088;2023-06-14T06:45:21;100793.80;;;
79488;BMP180;68949;53.176;18.088;2023-06-14T06:47:50;100793.00;;;
79488;BMP180;68949;53.176;18.088;2023-06-14T06:50:17;100796.00;;;
79488;BMP180;68949;53.176;18.088;2023-06-14T06:52:44;100796.80;;;
79488;BMP180;68949;53.176;18.088;2023-06-14T06:55:12;100805.40;;;
79488;BMP180;68949;53.176;18.088;2023-06-14T06:57:39;100802.00;;;
79488;BMP180;68949;53.176;18.088;2023-06-14T07:00:07;100811.40;;;
79488;BMP180;68949;53.176;18.088;2023-06-14T07:02:36;100811.20;;;
79488;BMP180;68949;53.176;18.088;2023-06-14T07:05:04;100822.80;;;
79488;BMP180;68949;53.176;18.088;2023-06-14T07:07:31;100817.80;;;
79488;BMP180;68949;53.176;18.088;2023-06-14T07:09:58;100823.40;;;
79488;BMP180;68949;53.176;18.088;2023-06-14T07:12:27;100815.80;;;
79488;BMP180;68949;53.176;18.088;2023-06-14T07:14:53;100822.40;;;
79488;BMP180;68949;53.176;18.088;2023-06-14T07:17:20;100812.20;;;
79488;BMP180;68949;53.176;18.088;2023-06-14T07:19:47;100812.40;;;
79488;BMP180;68949;53.176;18.088;2023-06-14T07:22:14;100816.20;;;
79488;BMP180;68949;53.176;18.088;2023-06-14T07:24:41;100823.20;;;
79488;BMP180;68949;53.176;18.088;2023-06-14T07:27:09;100813.80;;;
79488;BMP180;68949;53.176;18.088;2023-06-14T07:29:36;100813.40;;;
79488;BMP180;68949;53.176;18.088;2023-06-14T07:32:03;100811.00;;;
79488;BMP180;68949;53.176;18.088;2023-06-14T07:34:30;100806.60;;;
79488;BMP180;68949;53.176;18.088;2023-06-14T07:36:57;100809.00;;;
79488;BMP180;68949;53.176;18.088;2023-06-14T07:39:24;100811.60;;;
79488;BMP180;68949;53.176;18.088;2023-06-14T07:41:54;100789.60;;;
79488;BMP180;68949;53.176;18.088;2023-06-14T07:44:21;100792.80;;;
79488;BMP180;68949;53.176;18.088;2023-06-14T07:46:47;100802.80;;;
79488;BMP180;68949;53.176;18.088;2023-06-14T07:49:15;100804.00;;;
79488;BMP180;68949;53.176;18.088;2023-06-14T07:51:42;100798.00;;;
79488;BMP180;68949;53.176;18.088;2023-06-14T07:54:10;100788.00;;;
79488;BMP180;68949;53.176;18.088;2023-06-14T07:56:37;100774.20;;;
79488;BMP180;68949;53.176;18.088;2023-06-14T07:59:04;100784.00;;;
79488;BMP180;68949;53.176;18.088;2023-06-14T08:01:32;100785.20;;;
79488;BMP180;68949;53.176;18.088;2023-06-14T08:03:59;100776.80;;;
79488;BMP180;68949;53.176;18.088;2023-06-14T08:06:26;100771.80;;;
79488;BMP180;68949;53.176;18.088;2023-06-14T08:08:53;100765.40;;;
79488;BMP180;68949;53.176;18.088;2023-06-14T08:11:20;100770.60;;;
79488;BMP180;68949;53.176;18.088;2023-06-14T08:13:47;100771.00;;;
79488;BMP180;68949;53.176;18.088;2023-06-14T08:16:14;100766.80;;;
79488;BMP180;68949;53.176;18.088;2023-06-14T08:18:41;100774.60;;;
79488;BMP180;68949;53.176;18.088;2023-06-14T08:21:07;100784.20;;;
79488;BMP180;68949;53.176;18.088;2023-06-14T08:23:35;100785.40;;;
79488;BMP180;68949;53.176;18.088;2023-06-14T08:26:03;100781.20;;;
79488;BMP180;68949;53.176;18.088;2023-06-14T08:28:30;100779.60;;;
79488;BMP180;68949;53.176;18.088;2023-06-14T08:30:57;100782.00;;;
79488;BMP180;68949;53.176;18.088;2023-06-14T08:33:24;100790.20;;;
79488;BMP180;68949;53.176;18.088;2023-06-14T08:35:51;100787.20;;;
79488;BMP180;68949;53.176;18.088;2023-06-14T08:38:17;100769.40;;;
79488;BMP180;68949;53.176;18.088;2023-06-14T08:40:50;100784.20;;;
79488;BMP180;68949;53.176;18.088;2023-06-14T08:43:18;100794.40;;;
79488;BMP180;68949;53.176;18.088;2023-06-14T08:45:48;100795.00;;;
79488;BMP180;68949;53.176;18.088;2023-06-14T08:48:18;100795.00;;;
79488;BMP180;68949;53.176;18.088;2023-06-14T08:50:47;100787.60;;;
79488;BMP180;68949;53.176;18.088;2023-06-14T08:53:14;100781.40;;;
79488;BMP180;68949;53.176;18.088;2023-06-14T08:55:48;100793.60;;;
79488;BMP180;68949;53.176;18.088;2023-06-14T08:58:16;100763.60;;;
79488;BMP180;68949;53.176;18.088;2023-06-14T09:00:44;100769.00;;;
79488;BMP180;68949;53.176;18.088;2023-06-14T09:03:11;100790.60;;;
79488;BMP180;68949;53.176;18.088;2023-06-14T09:05:39;100797.40;;;
79488;BMP180;68949;53.176;18.088;2023-06-14T09:08:06;100776.20;;;
79488;BMP180;68949;53.176;18.088;2023-06-14T09:10:33;100792.00;;;
79488;BMP180;68949;53.176;18.088;2023-06-14T09:13:03;100784.40;;;
79488;BMP180;68949;53.176;18.088;2023-06-14T09:15:30;100800.20;;;
79488;BMP180;68949;53.176;18.088;2023-06-14T09:18:09;100793.80;;;
79488;BMP180;68949;53.176;18.088;2023-06-14T09:20:35;100792.80;;;
79488;BMP180;68949;53.176;18.088;2023-06-14T09:23:04;100791.00;;;
79488;BMP180;68949;53.176;18.088;2023-06-14T09:25:41;100773.60;;;
79488;BMP180;68949;53.176;18.088;2023-06-14T09:28:10;100787.80;;;
79488;BMP180;68949;53.176;18.088;2023-06-14T09:30:38;100792.40;;;
79488;BMP180;68949;53.176;18.088;2023-06-14T09:33:05;100777.00;;;
79488;BMP180;68949;53.176;18.088;2023-06-14T09:35:32;100776.40;;;
79488;BMP180;68949;53.176;18.088;2023-06-14T09:37:59;100779.20;;;
79488;BMP180;68949;53.176;18.088;2023-06-14T09:40:26;100770.00;;;
79488;BMP180;68949;53.176;18.088;2023-06-14T09:42:57;100773.60;;;
79488;BMP180;68949;53.176;18.088;2023-06-14T09:45:26;100768.60;;;
79488;BMP180;68949;53.176;18.088;2023-06-14T09:47:58;100779.00;;;
79488;BMP180;68949;53.176;18.088;2023-06-14T09:50:25;100776.20;;;
79488;BMP180;68949;53.176;18.088;2023-06-14T09:53:01;100787.40;;;
79488;BMP180;68949;53.176;18.088;2023-06-14T09:55:34;100776.60;;;
79488;BMP180;68949;53.176;18.088;2023-06-14T09:58:07;100767.40;;;
79488;BMP180;68949;53.176;18.088;2023-06-14T10:00:36;100772.40;;;
79488;BMP180;68949;53.176;18.088;2023-06-14T10:05:45;100772.00;;;
79488;BMP180;68949;53.176;18.088;2023-06-14T10:08:19;100762.60;;;
79488;BMP180;68949;53.176;18.088;2023-06-14T10:10:46;100771.20;;;
79488;BMP180;68949;53.176;18.088;2023-06-14T10:13:14;100769.00;;;
79488;BMP180;68949;53.176;18.088;2023-06-14T10:16:23;100762.20;;;
79488;BMP180;68949;53.176;18.088;2023-06-14T10:22:12;100750.00;;;
79488;BMP180;68949;53.176;18.088;2023-06-14T10:24:46;100756.80;;;
79488;BMP180;68949;53.176;18.088;2023-06-14T10:27:15;100762.00;;;
79488;BMP180;68949;53.176;18.088;2023-06-14T10:32:21;100750.80;;;
79488;BMP180;68949;53.176;18.088;2023-06-14T10:35:08;100747.20;;;
79488;BMP180;68949;53.176;18.088;2023-06-14T10:37:35;100744.60;;;
79488;BMP180;68949;53.176;18.088;2023-06-14T10:40:03;100733.80;;;
79488;BMP180;68949;53.176;18.088;2023-06-14T10:42:34;100744.80;;;
79488;BMP180;68949;53.176;18.088;2023-06-14T10:45:01;100739.40;;;
79488;BMP180;68949;53.176;18.088;2023-06-14T10:47:33;100743.60;;;
79488;BMP180;68949;53.176;18.088;2023-06-14T10:52:29;100730.60;;;
79488;BMP180;68949;53.176;18.088;2023-06-14T10:55:11;100724.80;;;
79488;BMP180;68949;53.176;18.088;2023-06-14T10:57:45;100730.60;;;
79488;BMP180;68949;53.176;18.088;2023-06-14T11:00:23;100717.00;;;
79488;BMP180;68949;53.176;18.088;2023-06-14T11:03:43;100724.00;;;
79488;BMP180;68949;53.176;18.088;2023-06-14T11:06:48;100711.60;;;
79488;BMP180;68949;53.176;18.088;2023-06-14T11:09:58;100715.20;;;
79488;BMP180;68949;53.176;18.088;2023-06-14T11:12:34;100693.20;;;
79488;BMP180;68949;53.176;18.088;2023-06-14T11:15:02;100706.20;;;
79488;BMP180;68949;53.176;18.088;2023-06-14T11:17:29;100711.60;;;
79488;BMP180;68949;53.176;18.088;2023-06-14T11:20:12;100710.60;;;
79488;BMP180;68949;53.176;18.088;2023-06-14T11:22:42;100686.40;;;
79488;BMP180;68949;53.176;18.088;2023-06-14T11:25:13;100683.60;;;
79488;BMP180;68949;53.176;18.088;2023-06-14T11:27:42;100704.60;;;
79488;BMP180;68949;53.176;18.088;2023-06-14T11:30:11;100709.40;;;
79488;BMP180;68949;53.176;18.088;2023-06-14T11:32:38;100697.20;;;
79488;BMP180;68949;53.176;18.088;2023-06-14T11:35:06;100705.00;;;
79488;BMP180;68949;53.176;18.088;2023-06-14T11:37:34;100705.20;;;
79488;BMP180;68949;53.176;18.088;2023-06-14T11:40:06;100714.00;;;
79488;BMP180;68949;53.176;18.088;2023-06-14T11:42:41;100710.60;;;
79488;BMP180;68949;53.176;18.088;2023-06-14T11:45:11;100707.20;;;
79488;BMP180;68949;53.176;18.088;2023-06-14T11:47:39;100714.60;;;
79488;BMP180;68949;53.176;18.088;2023-06-14T11:50:09;100710.20;;;
79488;BMP180;68949;53.176;18.088;2023-06-14T11:52:37;100701.20;;;
79488;BMP180;68949;53.176;18.088;2023-06-14T11:55:06;100698.40;;;
79488;BMP180;68949;53.176;18.088;2023-06-14T11:57:36;100704.00;;;
79488;BMP180;68949;53.176;18.088;2023-06-14T12:00:04;100710.60;;;
79488;BMP180;68949;53.176;18.088;2023-06-14T12:02:53;100710.40;;;
79488;BMP180;68949;53.176;18.088;2023-06-14T12:05:25;100726.20;;;
79488;BMP180;68949;53.176;18.088;2023-06-14T12:08:02;100729.00;;;
79488;BMP180;68949;53.176;18.088;2023-06-14T12:10:29;100731.80;;;
79488;BMP180;68949;53.176;18.088;2023-06-14T12:12:58;100737.00;;;
79488;BMP180;68949;53.176;18.088;2023-06-14T12:15:29;100741.80;;;
79488;BMP180;68949;53.176;18.088;2023-06-14T12:17:57;100744.60;;;
79488;BMP180;68949;53.176;18.088;2023-06-14T12:20:30;100748.40;;;
79488;BMP180;68949;53.176;18.088;2023-06-14T12:23:03;100764.00;;;
79488;BMP180;68949;53.176;18.088;2023-06-14T12:25:33;100754.00;;;
79488;BMP180;68949;53.176;18.088;2023-06-14T12:28:06;100741.60;;;
79488;BMP180;68949;53.176;18.088;2023-06-14T12:30:35;100735.80;;;
79488;BMP180;68949;53.176;18.088;2023-06-14T12:33:03;100747.20;;;
79488;BMP180;68949;53.176;18.088;2023-06-14T12:35:30;100763.80;;;
79488;BMP180;68949;53.176;18.088;2023-06-14T12:37:58;100775.20;;;
79488;BMP180;68949;53.176;18.088;2023-06-14T12:40:25;100783.60;;;
79488;BMP180;68949;53.176;18.088;2023-06-14T12:42:53;100798.40;;;
79488;BMP180;68949;53.176;18.088;2023-06-14T12:45:20;100799.80;;;
79488;BMP180;68949;53.176;18.088;2023-06-14T12:47:47;100817.80;;;
79488;BMP180;68949;53.176;18.088;2023-06-14T12:50:13;100823.20;;;
79488;BMP180;68949;53.176;18.088;2023-06-14T12:52:40;100832.60;;;
79488;BMP180;68949;53.176;18.088;2023-06-14T12:55:07;100842.80;;;
79488;BMP180;68949;53.176;18.088;2023-06-14T12:57:34;100833.60;;;
79488;BMP180;68949;53.176;18.088;2023-06-14T13:00:05;100840.20;;;
79488;BMP180;68949;53.176;18.088;2023-06-14T13:02:36;100844.80;;;
79488;BMP180;68949;53.176;18.088;2023-06-14T13:05:03;100855.40;;;
79488;BMP180;68949;53.176;18.088;2023-06-14T13:07:31;100868.40;;;
79488;BMP180;68949;53.176;18.088;2023-06-14T13:09:58;100867.80;;;
79488;BMP180;68949;53.176;18.088;2023-06-14T13:12:24;100829.40;;;
79488;BMP180;68949;53.176;18.088;2023-06-14T13:14:51;100857.20;;;
79488;BMP180;68949;53.176;18.088;2023-06-14T13:17:18;100876.20;;;
79488;BMP180;68949;53.176;18.088;2023-06-14T13:19:45;100858.00;;;
79488;BMP180;68949;53.176;18.088;2023-06-14T13:22:12;100866.00;;;
79488;BMP180;68949;53.176;18.088;2023-06-14T13:24:38;100863.20;;;
79488;BMP180;68949;53.176;18.088;2023-06-14T13:27:05;100867.60;;;
79488;BMP180;68949;53.176;18.088;2023-06-14T13:29:33;100862.20;;;
79488;BMP180;68949;53.176;18.088;2023-06-14T13:32:03;100852.00;;;
79488;BMP180;68949;53.176;18.088;2023-06-14T13:34:30;100868.00;;;
79488;BMP180;68949;53.176;18.088;2023-06-14T13:36:57;100868.00;;;
79488;BMP180;68949;53.176;18.088;2023-06-14T13:39:26;100865.80;;;
79488;BMP180;68949;53.176;18.088;2023-06-14T13:41:53;100874.80;;;
79488;BMP180;68949;53.176;18.088;2023-06-14T13:44:19;100867.60;;;
79488;BMP180;68949;53.176;18.088;2023-06-14T13:46:48;100860.20;;;
79488;BMP180;68949;53.176;18.088;2023-06-14T13:49:14;100860.20;;;
79488;BMP180;68949;53.176;18.088;2023-06-14T13:51:41;100851.20;;;
79488;BMP180;68949;53.176;18.088;2023-06-14T13:54:08;100838.20;;;
79488;BMP180;68949;53.176;18.088;2023-06-14T13:56:35;100859.00;;;
79488;BMP180;68949;53.176;18.088;2023-06-14T13:59:01;100868.40;;;
79488;BMP180;68949;53.176;18.088;2023-06-14T14:01:28;100877.60;;;
79488;BMP180;68949;53.176;18.088;2023-06-14T14:03:55;100876.60;;;
79488;BMP180;68949;53.176;18.088;2023-06-14T14:06:22;100877.60;;;
79488;BMP180;68949;53.176;18.088;2023-06-14T14:08:49;100868.80;;;
79488;BMP180;68949;53.176;18.088;2023-06-14T14:11:16;100882.80;;;
79488;BMP180;68949;53.176;18.088;2023-06-14T14:13:43;100880.20;;;
79488;BMP180;68949;53.176;18.088;2023-06-14T14:16:10;100875.60;;;
79488;BMP180;68949;53.176;18.088;2023-06-14T14:18:37;100874.60;;;
79488;BMP180;68949;53.176;18.088;2023-06-14T14:21:06;100874.20;;;
79488;BMP180;68949;53.176;18.088;2023-06-14T14:23:33;100867.40;;;
79488;BMP180;68949;53.176;18.088;2023-06-14T14:26:00;100851.60;;;
79488;BMP180;68949;53.176;18.088;2023-06-14T14:28:31;100832.60;;;
79488;BMP180;68949;53.176;18.088;2023-06-14T14:30:59;100816.60;;;
79488;BMP180;68949;53.176;18.088;2023-06-14T14:33:26;100831.60;;;
79488;BMP180;68949;53.176;18.088;2023-06-14T14:35:52;100812.80;;;
79488;BMP180;68949;53.176;18.088;2023-06-14T14:38:19;100812.80;;;
79488;BMP180;68949;53.176;18.088;2023-06-14T14:40:46;100819.20;;;
79488;BMP180;68949;53.176;18.088;2023-06-14T14:43:13;100818.00;;;
79488;BMP180;68949;53.176;18.088;2023-06-14T14:45:39;100810.00;;;
79488;BMP180;68949;53.176;18.088;2023-06-14T14:48:06;100803.00;;;
79488;BMP180;68949;53.176;18.088;2023-06-14T14:50:33;100803.60;;;
79488;BMP180;68949;53.176;18.088;2023-06-14T14:53:00;100795.00;;;
79488;BMP180;68949;53.176;18.088;2023-06-14T14:55:27;100798.80;;;
79488;BMP180;68949;53.176;18.088;2023-06-14T14:57:54;100793.20;;;
79488;BMP180;68949;53.176;18.088;2023-06-14T15:00:20;100787.40;;;
79488;BMP180;68949;53.176;18.088;2023-06-14T15:02:47;100777.40;;;
79488;BMP180;68949;53.176;18.088;2023-06-14T15:05:14;100776.40;;;
79488;BMP180;68949;53.176;18.088;2023-06-14T15:07:41;100780.80;;;
79488;BMP180;68949;53.176;18.088;2023-06-14T15:10:08;100793.00;;;
79488;BMP180;68949;53.176;18.088;2023-06-14T15:12:35;100781.00;;;